sensor_id;sensor_type;location;lat;lon;timestamp;temperature;humidity
39503;DHT22;26970;49.900;10.774;2023-05-10T00:00:30;13.70;99.90
39503;DHT22;26970;49.900;10.774;2023-05-10T00:02:56;13.70;99.90
39503;DHT22;26970;49.900;10.774;2023-05-10T00:05:22;13.60;99.90
39503;DHT22;26970;49.900;10.774;2023-05-10T00:07:47;13.70;99.90
39503;DHT22;26970;49.900;10.774;2023-05-10T00:10:13;13.70;99.90
39503;DHT22;26970;49.900;10.774;2023-05-10T00:12:39;13.70;99.90
39503;DHT22;26970;49.900;10.774;2023-05-10T00:15:05;13.70;99.90
39503;DHT22;26970;49.900;10.774;2023-05-10T00:17:31;13.70;99.90
39503;DHT22;26970;49.900;10.774;2023-05-10T00:19:56;13.60;99.90
39503;DHT22;26970;49.900;10.774;2023-05-10T00:22:22;13.60;99.90
39503;DHT22;26970;49.900;10.774;2023-05-10T00:24:48;13.60;99.90
39503;DHT22;26970;49.900;10.774;2023-05-10T00:27:14;13.60;99.90
39503;DHT22;26970;49.900;10.774;2023-05-10T00:29:39;13.60;99.90
39503;DHT22;26970;49.900;10.774;2023-05-10T00:32:05;13.60;99.90
39503;DHT22;26970;49.900;10.774;2023-05-10T00:34:31;13.60;99.90
39503;DHT22;26970;49.900;10.774;2023-05-10T00:36:56;13.60;99.90
39503;DHT22;26970;49.900;10.774;2023-05-10T00:39:22;13.60;99.90
39503;DHT22;26970;49.900;10.774;2023-05-10T00:41:47;13.60;99.90
39503;DHT22;26970;49.900;10.774;2023-05-10T00:44:14;13.60;99.90
39503;DHT22;26970;49.900;10.774;2023-05-10T00:46:40;13.60;99.90
39503;DHT22;26970;49.900;10.774;2023-05-10T00:49:06;13.50;99.90
39503;DHT22;26970;49.900;10.774;2023-05-10T00:51:32;13.50;99.90
39503;DHT22;26970;49.900;10.774;2023-05-10T00:53:58;13.50;99.90
39503;DHT22;26970;49.900;10.774;2023-05-10T00:56:25;13.50;99.90
39503;DHT22;26970;49.900;10.774;2023-05-10T00:58:51;13.50;99.90
39503;DHT22;26970;49.900;10.774;2023-05-10T01:01:16;13.50;99.90
39503;DHT22;26970;49.900;10.774;2023-05-10T01:03:43;13.50;99.90
39503;DHT22;26970;49.900;10.774;2023-05-10T01:06:09;13.50;99.90
39503;DHT22;26970;49.900;10.774;2023-05-10T01:08:35;13.50;99.90
39503;DHT22;26970;49.900;10.774;2023-05-10T01:11:01;13.50;99.90
39503;DHT22;26970;49.900;10.774;2023-05-10T01:15:53;13.40;99.90
39503;DHT22;26970;49.900;10.774;2023-05-10T01:18:20;13.40;99.90
39503;DHT22;26970;49.900;10.774;2023-05-10T01:20:48;13.50;99.90
39503;DHT22;26970;49.900;10.774;2023-05-10T01:23:45;13.40;99.90
39503;DHT22;26970;49.900;10.774;2023-05-10T01:26:26;13.40;99.90
39503;DHT22;26970;49.900;10.774;2023-05-10T01:35:03;13.40;99.90
39503;DHT22;26970;49.900;10.774;2023-05-10T01:40:25;13.30;99.90
39503;DHT22;26970;49.900;10.774;2023-05-10T01:43:02;13.40;99.90
39503;DHT22;26970;49.900;10.774;2023-05-10T01:45:35;13.40;99.90
39503;DHT22;26970;49.900;10.774;2023-05-10T01:48:08;13.40;99.90
39503;DHT22;26970;49.900;10.774;2023-05-10T01:50:36;13.40;99.90
39503;DHT22;26970;49.900;10.774;2023-05-10T01:53:02;13.40;99.90
39503;DHT22;26970;49.900;10.774;2023-05-10T01:55:32;13.30;99.90
39503;DHT22;26970;49.900;10.774;2023-05-10T01:58:09;13.30;99.90
39503;DHT22;26970;49.900;10.774;2023-05-10T02:00:35;13.30;99.90
39503;DHT22;26970;49.900;10.774;2023-05-10T02:03:06;13.30;99.90
39503;DHT22;26970;49.900;10.774;2023-05-10T02:05:34;13.30;99.90
39503;DHT22;26970;49.900;10.774;2023-05-10T02:08:03;13.30;99.90
39503;DHT22;26970;49.900;10.774;2023-05-10T02:10:33;13.30;99.90
39503;DHT22;26970;49.900;10.774;2023-05-10T02:13:00;13.30;99.90
39503;DHT22;26970;49.900;10.774;2023-05-10T02:15:27;13.30;99.90
39503;DHT22;26970;49.900;10.774;2023-05-10T02:17:55;13.30;99.90
39503;DHT22;26970;49.900;10.774;2023-05-10T02:20:22;13.30;99.90
39503;DHT22;26970;49.900;10.774;2023-05-10T02:22:51;13.30;99.90
39503;DHT22;26970;49.900;10.774;2023-05-10T02:25:19;13.30;99.90
39503;DHT22;26970;49.900;10.774;2023-05-10T02:27:46;13.30;99.90
39503;DHT22;26970;49.900;10.774;2023-05-10T02:30:13;13.30;99.90
39503;DHT22;26970;49.900;10.774;2023-05-10T02:32:39;13.30;99.90
39503;DHT22;26970;49.900;10.774;2023-05-10T02:35:06;13.30;99.90
39503;DHT22;26970;49.900;10.774;2023-05-10T02:37:33;13.30;99.90
39503;DHT22;26970;49.900;10.774;2023-05-10T02:40:00;13.30;99.90
39503;DHT22;26970;49.900;10.774;2023-05-10T02:42:29;13.30;99.90
39503;DHT22;26970;49.900;10.774;2023-05-10T02:44:59;13.30;99.90
39503;DHT22;26970;49.900;10.774;2023-05-10T02:47:26;13.30;99.90
39503;DHT22;26970;49.900;10.774;2023-05-10T02:49:52;13.30;99.90
39503;DHT22;26970;49.900;10.774;2023-05-10T02:52:24;13.30;99.90
39503;DHT22;26970;49.900;10.774;2023-05-10T02:54:53;13.30;99.90
39503;DHT22;26970;49.900;10.774;2023-05-10T02:57:25;13.20;99.90
39503;DHT22;26970;49.900;10.774;2023-05-10T02:59:51;13.20;99.90
39503;DHT22;26970;49.900;10.774;2023-05-10T03:02:17;13.30;99.90
39503;DHT22;26970;49.900;10.774;2023-05-10T03:04:42;13.30;99.90
39503;DHT22;26970;49.900;10.774;2023-05-10T03:07:08;13.30;99.90
39503;DHT22;26970;49.900;10.774;2023-05-10T03:09:34;13.30;99.90
39503;DHT22;26970;49.900;10.774;2023-05-10T03:17:30;13.30;99.90
39503;DHT22;26970;49.900;10.774;2023-05-10T03:20:04;13.30;99.90
39503;DHT22;26970;49.900;10.774;2023-05-10T03:22:37;13.30;99.90
39503;DHT22;26970;49.900;10.774;2023-05-10T03:25:06;13.30;99.90
39503;DHT22;26970;49.900;10.774;2023-05-10T03:27:32;13.30;99.90
39503;DHT22;26970;49.900;10.774;2023-05-10T03:29:59;13.20;99.90
39503;DHT22;26970;49.900;10.774;2023-05-10T03:32:28;13.20;99.90
39503;DHT22;26970;49.900;10.774;2023-05-10T03:34:55;13.10;99.90
39503;DHT22;26970;49.900;10.774;2023-05-10T03:37:21;13.10;99.90
39503;DHT22;26970;49.900;10.774;2023-05-10T03:39:46;13.10;99.90
39503;DHT22;26970;49.900;10.774;2023-05-10T03:42:12;13.10;99.90
39503;DHT22;26970;49.900;10.774;2023-05-10T03:44:41;13.10;99.90
39503;DHT22;26970;49.900;10.774;2023-05-10T03:47:06;13.10;99.90
39503;DHT22;26970;49.900;10.774;2023-05-10T03:49:32;13.10;99.90
39503;DHT22;26970;49.900;10.774;2023-05-10T03:51:57;13.00;99.90
39503;DHT22;26970;49.900;10.774;2023-05-10T03:54:23;13.00;99.90
39503;DHT22;26970;49.900;10.774;2023-05-10T03:56:49;13.00;99.90
39503;DHT22;26970;49.900;10.774;2023-05-10T03:59:14;13.00;99.90
39503;DHT22;26970;49.900;10.774;2023-05-10T04:01:40;13.00;99.90
39503;DHT22;26970;49.900;10.774;2023-05-10T04:04:06;12.90;99.90
39503;DHT22;26970;49.900;10.774;2023-05-10T04:06:32;12.90;99.90
39503;DHT22;26970;49.900;10.774;2023-05-10T04:08:57;12.90;99.90
39503;DHT22;26970;49.900;10.774;2023-05-10T04:11:25;12.80;99.90
39503;DHT22;26970;49.900;10.774;2023-05-10T04:13:51;12.90;99.90
39503;DHT22;26970;49.900;10.774;2023-05-10T04:16:16;12.90;99.90
39503;DHT22;26970;49.900;10.774;2023-05-10T04:18:42;12.80;99.90
39503;DHT22;26970;49.900;10.774;2023-05-10T04:21:12;12.90;99.90
39503;DHT22;26970;49.900;10.774;2023-05-10T04:23:38;12.80;99.90
39503;DHT22;26970;49.900;10.774;2023-05-10T04:26:04;12.80;99.90
39503;DHT22;26970;49.900;10.774;2023-05-10T04:28:30;12.80;99.90
39503;DHT22;26970;49.900;10.774;2023-05-10T04:31:06;12.80;99.90
39503;DHT22;26970;49.900;10.774;2023-05-10T04:33:32;12.80;99.90
39503;DHT22;26970;49.900;10.774;2023-05-10T04:35:58;12.70;99.90
39503;DHT22;26970;49.900;10.774;2023-05-10T04:38:24;12.60;99.90
39503;DHT22;26970;49.900;10.774;2023-05-10T04:40:50;12.60;99.90
39503;DHT22;26970;49.900;10.774;2023-05-10T04:43:16;12.60;99.90
39503;DHT22;26970;49.900;10.774;2023-05-10T04:45:41;12.60;99.90
39503;DHT22;26970;49.900;10.774;2023-05-10T04:48:07;12.60;99.90
39503;DHT22;26970;49.900;10.774;2023-05-10T04:50:33;12.60;99.90
39503;DHT22;26970;49.900;10.774;2023-05-10T04:52:58;12.60;99.90
39503;DHT22;26970;49.900;10.774;2023-05-10T04:55:24;12.50;99.90
39503;DHT22;26970;49.900;10.774;2023-05-10T04:57:50;12.50;99.90
39503;DHT22;26970;49.900;10.774;2023-05-10T05:00:16;12.50;99.90
39503;DHT22;26970;49.900;10.774;2023-05-10T05:02:45;12.50;99.90
39503;DHT22;26970;49.900;10.774;2023-05-10T05:05:11;12.50;99.90
39503;DHT22;26970;49.900;10.774;2023-05-10T05:07:37;12.60;99.90
39503;DHT22;26970;49.900;10.774;2023-05-10T05:10:07;12.60;99.90
39503;DHT22;26970;49.900;10.774;2023-05-10T05:12:33;12.60;99.90
39503;DHT22;26970;49.900;10.774;2023-05-10T05:14:58;12.60;99.90
39503;DHT22;26970;49.900;10.774;2023-05-10T05:17:24;12.70;99.90
39503;DHT22;26970;49.900;10.774;2023-05-10T05:19:49;12.70;99.90
39503;DHT22;26970;49.900;10.774;2023-05-10T05:22:15;12.70;99.90
39503;DHT22;26970;49.900;10.774;2023-05-10T05:24:41;12.70;99.90
39503;DHT22;26970;49.900;10.774;2023-05-10T05:27:06;12.80;99.90
39503;DHT22;26970;49.900;10.774;2023-05-10T05:29:32;12.80;99.90
39503;DHT22;26970;49.900;10.774;2023-05-10T05:31:58;12.80;99.90
39503;DHT22;26970;49.900;10.774;2023-05-10T05:34:24;12.80;99.90
39503;DHT22;26970;49.900;10.774;2023-05-10T05:36:50;12.80;99.90
39503;DHT22;26970;49.900;10.774;2023-05-10T05:39:16;12.80;99.90
39503;DHT22;26970;49.900;10.774;2023-05-10T05:41:42;12.80;99.90
39503;DHT22;26970;49.900;10.774;2023-05-10T05:44:08;12.90;99.90
39503;DHT22;26970;49.900;10.774;2023-05-10T05:46:33;12.90;99.90
39503;DHT22;26970;49.900;10.774;2023-05-10T05:48:59;13.00;99.90
39503;DHT22;26970;49.900;10.774;2023-05-10T05:51:25;13.00;99.90
39503;DHT22;26970;49.900;10.774;2023-05-10T05:53:50;13.00;99.90
39503;DHT22;26970;49.900;10.774;2023-05-10T05:56:16;13.10;99.90
39503;DHT22;26970;49.900;10.774;2023-05-10T05:58:49;13.10;99.90
39503;DHT22;26970;49.900;10.774;2023-05-10T06:01:15;13.10;99.90
39503;DHT22;26970;49.900;10.774;2023-05-10T06:03:41;13.10;99.90
39503;DHT22;26970;49.900;10.774;2023-05-10T06:06:07;13.20;99.90
39503;DHT22;26970;49.900;10.774;2023-05-10T06:08:33;13.30;99.90
39503;DHT22;26970;49.900;10.774;2023-05-10T06:10:59;13.30;99.90
39503;DHT22;26970;49.900;10.774;2023-05-10T06:13:25;13.40;99.90
39503;DHT22;26970;49.900;10.774;2023-05-10T06:15:54;13.40;99.90
39503;DHT22;26970;49.900;10.774;2023-05-10T06:18:19;13.50;99.90
39503;DHT22;26970;49.900;10.774;2023-05-10T06:20:45;13.40;99.90
39503;DHT22;26970;49.900;10.774;2023-05-10T06:23:10;13.50;99.90
39503;DHT22;26970;49.900;10.774;2023-05-10T06:25:36;13.50;99.90
39503;DHT22;26970;49.900;10.774;2023-05-10T06:28:02;13.50;99.90
39503;DHT22;26970;49.900;10.774;2023-05-10T06:30:27;13.40;99.90
39503;DHT22;26970;49.900;10.774;2023-05-10T06:32:54;13.50;99.90
39503;DHT22;26970;49.900;10.774;2023-05-10T06:35:20;13.60;99.90
39503;DHT22;26970;49.900;10.774;2023-05-10T06:37:45;13.70;99.90
39503;DHT22;26970;49.900;10.774;2023-05-10T06:40:12;13.80;99.90
39503;DHT22;26970;49.900;10.774;2023-05-10T06:42:37;13.90;99.90
39503;DHT22;26970;49.900;10.774;2023-05-10T06:45:03;14.00;99.90
39503;DHT22;26970;49.900;10.774;2023-05-10T06:47:29;14.10;99.90
39503;DHT22;26970;49.900;10.774;2023-05-10T06:49:54;14.10;99.90
39503;DHT22;26970;49.900;10.774;2023-05-10T06:52:21;14.20;99.90
39503;DHT22;26970;49.900;10.774;2023-05-10T06:54:46;14.20;99.90
39503;DHT22;26970;49.900;10.774;2023-05-10T06:57:12;14.20;99.90
39503;DHT22;26970;49.900;10.774;2023-05-10T06:59:38;14.30;99.90
39503;DHT22;26970;49.900;10.774;2023-05-10T07:02:03;14.40;99.90
39503;DHT22;26970;49.900;10.774;2023-05-10T07:04:29;14.60;99.90
39503;DHT22;26970;49.900;10.774;2023-05-10T07:06:54;14.60;99.90
39503;DHT22;26970;49.900;10.774;2023-05-10T07:09:20;14.70;99.90
39503;DHT22;26970;49.900;10.774;2023-05-10T07:11:45;14.90;99.90
39503;DHT22;26970;49.900;10.774;2023-05-10T07:14:11;15.00;99.90
39503;DHT22;26970;49.900;10.774;2023-05-10T07:16:37;15.00;99.90
39503;DHT22;26970;49.900;10.774;2023-05-10T07:19:02;15.10;99.90
39503;DHT22;26970;49.900;10.774;2023-05-10T07:21:30;15.10;99.90
39503;DHT22;26970;49.900;10.774;2023-05-10T07:23:56;15.20;99.90
39503;DHT22;26970;49.900;10.774;2023-05-10T07:26:22;15.30;99.90
39503;DHT22;26970;49.900;10.774;2023-05-10T07:28:47;15.10;99.90
39503;DHT22;26970;49.900;10.774;2023-05-10T07:31:13;15.20;99.90
39503;DHT22;26970;49.900;10.774;2023-05-10T07:33:38;15.30;99.90
39503;DHT22;26970;49.900;10.774;2023-05-10T07:36:04;15.30;99.90
39503;DHT22;26970;49.900;10.774;2023-05-10T07:38:30;15.30;99.90
39503;DHT22;26970;49.900;10.774;2023-05-10T07:41:11;15.30;99.90
39503;DHT22;26970;49.900;10.774;2023-05-10T07:43:37;15.20;99.90
39503;DHT22;26970;49.900;10.774;2023-05-10T07:46:02;15.30;99.90
39503;DHT22;26970;49.900;10.774;2023-05-10T07:48:28;15.30;99.90
39503;DHT22;26970;49.900;10.774;2023-05-10T07:50:53;15.30;99.90
39503;DHT22;26970;49.900;10.774;2023-05-10T07:53:19;15.20;99.90
39503;DHT22;26970;49.900;10.774;2023-05-10T07:55:50;15.20;99.90
39503;DHT22;26970;49.900;10.774;2023-05-10T07:58:16;15.20;99.90
39503;DHT22;26970;49.900;10.774;2023-05-10T08:00:41;15.20;99.90
39503;DHT22;26970;49.900;10.774;2023-05-10T08:03:07;15.30;99.90
39503;DHT22;26970;49.900;10.774;2023-05-10T08:05:32;15.40;99.90
39503;DHT22;26970;49.900;10.774;2023-05-10T08:07:58;15.40;99.90
39503;DHT22;26970;49.900;10.774;2023-05-10T08:10:24;15.40;99.90
39503;DHT22;26970;49.900;10.774;2023-05-10T08:12:50;15.40;99.90
39503;DHT22;26970;49.900;10.774;2023-05-10T08:15:16;15.60;99.90
39503;DHT22;26970;49.900;10.774;2023-05-10T08:17:42;15.80;99.90
39503;DHT22;26970;49.900;10.774;2023-05-10T08:20:08;16.10;99.90
39503;DHT22;26970;49.900;10.774;2023-05-10T08:22:34;16.00;99.90
39503;DHT22;26970;49.900;10.774;2023-05-10T08:25:00;15.90;99.90
39503;DHT22;26970;49.900;10.774;2023-05-10T08:27:25;15.80;99.90
39503;DHT22;26970;49.900;10.774;2023-05-10T08:29:51;15.90;99.90
39503;DHT22;26970;49.900;10.774;2023-05-10T08:32:17;16.00;99.90
39503;DHT22;26970;49.900;10.774;2023-05-10T08:34:43;16.10;99.90
39503;DHT22;26970;49.900;10.774;2023-05-10T08:37:08;16.00;99.90
39503;DHT22;26970;49.900;10.774;2023-05-10T08:39:35;16.00;99.90
39503;DHT22;26970;49.900;10.774;2023-05-10T08:42:03;15.90;99.90
39503;DHT22;26970;49.900;10.774;2023-05-10T08:44:32;15.90;99.90
39503;DHT22;26970;49.900;10.774;2023-05-10T08:46:59;15.70;99.90
39503;DHT22;26970;49.900;10.774;2023-05-10T08:49:28;15.60;99.90
39503;DHT22;26970;49.900;10.774;2023-05-10T08:51:57;15.50;99.90
39503;DHT22;26970;49.900;10.774;2023-05-10T08:54:25;15.40;99.90
39503;DHT22;26970;49.900;10.774;2023-05-10T08:56:50;15.20;99.90
39503;DHT22;26970;49.900;10.774;2023-05-10T08:59:17;15.20;99.90
39503;DHT22;26970;49.900;10.774;2023-05-10T09:01:44;15.20;99.90
39503;DHT22;26970;49.900;10.774;2023-05-10T09:04:13;15.20;99.90
39503;DHT22;26970;49.900;10.774;2023-05-10T09:06:39;15.10;99.90
39503;DHT22;26970;49.900;10.774;2023-05-10T09:09:05;15.10;99.90
39503;DHT22;26970;49.900;10.774;2023-05-10T09:11:31;15.30;99.90
39503;DHT22;26970;49.900;10.774;2023-05-10T09:13:57;15.30;99.90
39503;DHT22;26970;49.900;10.774;2023-05-10T09:16:23;15.30;99.90
39503;DHT22;26970;49.900;10.774;2023-05-10T09:18:49;15.30;99.90
39503;DHT22;26970;49.900;10.774;2023-05-10T09:21:15;15.50;99.90
39503;DHT22;26970;49.900;10.774;2023-05-10T09:23:44;15.60;99.90
39503;DHT22;26970;49.900;10.774;2023-05-10T09:26:10;15.70;99.90
39503;DHT22;26970;49.900;10.774;2023-05-10T09:28:57;15.90;99.90
39503;DHT22;26970;49.900;10.774;2023-05-10T09:31:23;16.00;99.90
39503;DHT22;26970;49.900;10.774;2023-05-10T09:33:50;15.80;99.90
39503;DHT22;26970;49.900;10.774;2023-05-10T09:36:16;15.50;99.90
39503;DHT22;26970;49.900;10.774;2023-05-10T09:38:46;15.40;99.90
39503;DHT22;26970;49.900;10.774;2023-05-10T09:41:22;15.50;99.90
39503;DHT22;26970;49.900;10.774;2023-05-10T09:43:48;15.70;99.90
39503;DHT22;26970;49.900;10.774;2023-05-10T09:46:17;15.90;99.90
39503;DHT22;26970;49.900;10.774;2023-05-10T09:48:45;16.10;99.90
39503;DHT22;26970;49.900;10.774;2023-05-10T09:51:24;16.60;99.90
39503;DHT22;26970;49.900;10.774;2023-05-10T09:54:13;17.10;99.90
39503;DHT22;26970;49.900;10.774;2023-05-10T09:56:39;17.40;99.90
39503;DHT22;26970;49.900;10.774;2023-05-10T09:59:07;17.60;99.90
39503;DHT22;26970;49.900;10.774;2023-05-10T10:01:34;17.50;99.90
39503;DHT22;26970;49.900;10.774;2023-05-10T10:04:10;17.50;99.90
39503;DHT22;26970;49.900;10.774;2023-05-10T10:06:39;17.30;99.90
39503;DHT22;26970;49.900;10.774;2023-05-10T10:09:06;16.80;99.90
39503;DHT22;26970;49.900;10.774;2023-05-10T10:11:35;16.50;99.90
39503;DHT22;26970;49.900;10.774;2023-05-10T10:14:03;16.50;99.90
39503;DHT22;26970;49.900;10.774;2023-05-10T10:16:30;16.60;99.90
39503;DHT22;26970;49.900;10.774;2023-05-10T10:18:56;17.00;99.90
39503;DHT22;26970;49.900;10.774;2023-05-10T10:21:22;17.40;99.90
39503;DHT22;26970;49.900;10.774;2023-05-10T10:23:48;17.70;99.90
39503;DHT22;26970;49.900;10.774;2023-05-10T10:26:15;17.80;99.90
39503;DHT22;26970;49.900;10.774;2023-05-10T10:34:06;18.40;99.90
39503;DHT22;26970;49.900;10.774;2023-05-10T10:36:56;18.20;99.90
39503;DHT22;26970;49.900;10.774;2023-05-10T10:39:27;18.20;99.90
39503;DHT22;26970;49.900;10.774;2023-05-10T10:41:54;18.20;99.90
39503;DHT22;26970;49.900;10.774;2023-05-10T10:49:30;17.90;99.90
39503;DHT22;26970;49.900;10.774;2023-05-10T10:54:59;17.20;99.90
39503;DHT22;26970;49.900;10.774;2023-05-10T10:57:27;17.00;99.90
39503;DHT22;26970;49.900;10.774;2023-05-10T11:00:56;16.80;99.90
39503;DHT22;26970;49.900;10.774;2023-05-10T11:03:13;16.70;99.90
39503;DHT22;26970;49.900;10.774;2023-05-10T11:05:46;16.80;99.90
39503;DHT22;26970;49.900;10.774;2023-05-10T11:16:15;17.50;99.90
39503;DHT22;26970;49.900;10.774;2023-05-10T11:18:41;17.70;99.90
39503;DHT22;26970;49.900;10.774;2023-05-10T11:21:17;17.80;99.90
39503;DHT22;26970;49.900;10.774;2023-05-10T11:23:51;17.90;99.90
39503;DHT22;26970;49.900;10.774;2023-05-10T11:26:18;18.00;99.90
39503;DHT22;26970;49.900;10.774;2023-05-10T11:28:47;17.90;99.90
39503;DHT22;26970;49.900;10.774;2023-05-10T11:31:17;17.80;99.90
39503;DHT22;26970;49.900;10.774;2023-05-10T11:33:51;17.50;99.90
39503;DHT22;26970;49.900;10.774;2023-05-10T11:36:23;17.20;99.90
39503;DHT22;26970;49.900;10.774;2023-05-10T11:38:48;17.50;99.90
39503;DHT22;26970;49.900;10.774;2023-05-10T11:41:15;17.60;99.90
39503;DHT22;26970;49.900;10.774;2023-05-10T11:43:42;17.60;99.90
39503;DHT22;26970;49.900;10.774;2023-05-10T11:46:10;17.70;99.90
39503;DHT22;26970;49.900;10.774;2023-05-10T11:48:38;17.70;99.90
39503;DHT22;26970;49.900;10.774;2023-05-10T11:51:04;17.90;99.90
39503;DHT22;26970;49.900;10.774;2023-05-10T11:53:32;18.00;99.90
39503;DHT22;26970;49.900;10.774;2023-05-10T11:56:06;18.10;99.90
39503;DHT22;26970;49.900;10.774;2023-05-10T11:58:33;17.90;99.90
39503;DHT22;26970;49.900;10.774;2023-05-10T12:01:02;17.80;99.90
39503;DHT22;26970;49.900;10.774;2023-05-10T12:03:28;17.60;99.90
39503;DHT22;26970;49.900;10.774;2023-05-10T12:05:55;17.50;99.90
39503;DHT22;26970;49.900;10.774;2023-05-10T12:08:23;17.50;99.90
39503;DHT22;26970;49.900;10.774;2023-05-10T12:10:49;17.40;99.90
39503;DHT22;26970;49.900;10.774;2023-05-10T12:13:15;17.50;99.90
39503;DHT22;26970;49.900;10.774;2023-05-10T12:15:41;17.40;99.90
39503;DHT22;26970;49.900;10.774;2023-05-10T12:18:12;17.50;99.90
39503;DHT22;26970;49.900;10.774;2023-05-10T12:20:38;17.50;99.90
39503;DHT22;26970;49.900;10.774;2023-05-10T12:23:04;17.50;99.90
39503;DHT22;26970;49.900;10.774;2023-05-10T12:25:32;17.60;99.90
39503;DHT22;26970;49.900;10.774;2023-05-10T12:27:59;17.90;99.90
39503;DHT22;26970;49.900;10.774;2023-05-10T12:30:29;18.30;99.90
39503;DHT22;26970;49.900;10.774;2023-05-10T12:33:00;18.40;99.90
39503;DHT22;26970;49.900;10.774;2023-05-10T12:35:29;18.70;99.90
39503;DHT22;26970;49.900;10.774;2023-05-10T12:37:55;18.80;99.90
39503;DHT22;26970;49.900;10.774;2023-05-10T12:40:20;18.40;99.90
39503;DHT22;26970;49.900;10.774;2023-05-10T12:42:46;18.00;99.90
39503;DHT22;26970;49.900;10.774;2023-05-10T12:45:12;18.10;99.90
39503;DHT22;26970;49.900;10.774;2023-05-10T12:47:38;18.10;99.90
39503;DHT22;26970;49.900;10.774;2023-05-10T12:50:04;18.20;99.90
39503;DHT22;26970;49.900;10.774;2023-05-10T12:52:30;18.30;99.90
39503;DHT22;26970;49.900;10.774;2023-05-10T12:54:58;18.10;99.90
39503;DHT22;26970;49.900;10.774;2023-05-10T12:57:24;18.00;99.90
39503;DHT22;26970;49.900;10.774;2023-05-10T12:59:49;18.50;99.90
39503;DHT22;26970;49.900;10.774;2023-05-10T13:02:15;18.90;99.90
39503;DHT22;26970;49.900;10.774;2023-05-10T13:04:43;19.20;99.90
39503;DHT22;26970;49.900;10.774;2023-05-10T13:07:09;19.10;99.90
39503;DHT22;26970;49.900;10.774;2023-05-10T13:09:35;19.20;99.90
39503;DHT22;26970;49.900;10.774;2023-05-10T13:12:01;19.00;99.90
39503;DHT22;26970;49.900;10.774;2023-05-10T13:14:27;18.80;99.90
39503;DHT22;26970;49.900;10.774;2023-05-10T13:16:53;18.50;99.90
39503;DHT22;26970;49.900;10.774;2023-05-10T13:19:19;18.40;99.90
39503;DHT22;26970;49.900;10.774;2023-05-10T13:21:45;18.30;99.90
39503;DHT22;26970;49.900;10.774;2023-05-10T13:24:11;17.90;99.90
39503;DHT22;26970;49.900;10.774;2023-05-10T13:26:39;17.80;99.90
39503;DHT22;26970;49.900;10.774;2023-05-10T13:29:05;17.70;99.90
39503;DHT22;26970;49.900;10.774;2023-05-10T13:31:31;17.60;99.90
39503;DHT22;26970;49.900;10.774;2023-05-10T13:33:56;17.70;99.90
39503;DHT22;26970;49.900;10.774;2023-05-10T13:36:22;17.70;99.90
39503;DHT22;26970;49.900;10.774;2023-05-10T13:38:48;17.80;99.90
39503;DHT22;26970;49.900;10.774;2023-05-10T13:41:13;17.90;99.90
39503;DHT22;26970;49.900;10.774;2023-05-10T13:43:39;18.00;99.90
39503;DHT22;26970;49.900;10.774;2023-05-10T13:46:05;18.30;99.90
39503;DHT22;26970;49.900;10.774;2023-05-10T13:48:31;18.30;99.90
39503;DHT22;26970;49.900;10.774;2023-05-10T13:50:56;17.90;99.90
39503;DHT22;26970;49.900;10.774;2023-05-10T13:53:22;17.60;99.90
39503;DHT22;26970;49.900;10.774;2023-05-10T13:55:48;17.60;99.90
39503;DHT22;26970;49.900;10.774;2023-05-10T13:58:14;17.70;99.90
39503;DHT22;26970;49.900;10.774;2023-05-10T14:00:40;17.80;99.90
39503;DHT22;26970;49.900;10.774;2023-05-10T14:03:05;17.90;99.90
39503;DHT22;26970;49.900;10.774;2023-05-10T14:05:32;17.70;99.90
39503;DHT22;26970;49.900;10.774;2023-05-10T14:07:58;17.70;99.90
39503;DHT22;26970;49.900;10.774;2023-05-10T14:10:23;17.60;99.90
39503;DHT22;26970;49.900;10.774;2023-05-10T14:12:49;17.50;99.90
39503;DHT22;26970;49.900;10.774;2023-05-10T14:15:16;17.50;99.90
39503;DHT22;26970;49.900;10.774;2023-05-10T14:17:41;17.50;99.90
39503;DHT22;26970;49.900;10.774;2023-05-10T14:20:07;17.50;99.90
39503;DHT22;26970;49.900;10.774;2023-05-10T14:22:34;17.40;99.90
39503;DHT22;26970;49.900;10.774;2023-05-10T14:24:59;17.50;99.90
39503;DHT22;26970;49.900;10.774;2023-05-10T14:27:25;17.60;99.90
39503;DHT22;26970;49.900;10.774;2023-05-10T14:29:51;17.60;99.90
39503;DHT22;26970;49.900;10.774;2023-05-10T14:32:17;17.50;99.90
39503;DHT22;26970;49.900;10.774;2023-05-10T14:34:42;17.50;99.90
39503;DHT22;26970;49.900;10.774;2023-05-10T14:37:10;17.40;99.90
39503;DHT22;26970;49.900;10.774;2023-05-10T14:39:36;17.30;99.90
39503;DHT22;26970;49.900;10.774;2023-05-10T14:42:02;17.20;99.90
39503;DHT22;26970;49.900;10.774;2023-05-10T14:44:28;17.10;99.90
39503;DHT22;26970;49.900;10.774;2023-05-10T14:46:53;16.90;99.90
39503;DHT22;26970;49.900;10.774;2023-05-10T14:49:19;17.00;99.90
39503;DHT22;26970;49.900;10.774;2023-05-10T14:51:48;16.90;99.90
39503;DHT22;26970;49.900;10.774;2023-05-10T14:54:13;16.70;99.90
39503;DHT22;26970;49.900;10.774;2023-05-10T14:56:39;16.40;99.90
39503;DHT22;26970;49.900;10.774;2023-05-10T14:59:07;16.20;99.90
39503;DHT22;26970;49.900;10.774;2023-05-10T15:01:32;16.10;99.90
39503;DHT22;26970;49.900;10.774;2023-05-10T15:04:00;16.00;99.90
39503;DHT22;26970;49.900;10.774;2023-05-10T15:06:35;16.00;99.90
39503;DHT22;26970;49.900;10.774;2023-05-10T15:09:02;16.00;99.90
39503;DHT22;26970;49.900;10.774;2023-05-10T15:11:28;15.90;99.90
39503;DHT22;26970;49.900;10.774;2023-05-10T15:13:55;15.90;99.90
39503;DHT22;26970;49.900;10.774;2023-05-10T15:16:20;15.90;99.90
39503;DHT22;26970;49.900;10.774;2023-05-10T15:18:46;15.90;99.90
39503;DHT22;26970;49.900;10.774;2023-05-10T15:21:12;15.90;99.90
39503;DHT22;26970;49.900;10.774;2023-05-10T15:23:38;15.90;99.90
39503;DHT22;26970;49.900;10.774;2023-05-10T15:26:03;15.80;99.90
39503;DHT22;26970;49.900;10.774;2023-05-10T15:28:29;15.90;99.90
39503;DHT22;26970;49.900;10.774;2023-05-10T15:30:55;15.60;99.90
39503;DHT22;26970;49.900;10.774;2023-05-10T15:33:21;15.60;99.90
39503;DHT22;26970;49.900;10.774;2023-05-10T15:35:47;15.60;99.90
39503;DHT22;26970;49.900;10.774;2023-05-10T15:38:12;15.60;99.90
39503;DHT22;26970;49.900;10.774;2023-05-10T15:40:38;15.60;99.90
39503;DHT22;26970;49.900;10.774;2023-05-10T15:43:04;15.40;99.90
39503;DHT22;26970;49.900;10.774;2023-05-10T15:45:30;15.40;99.90
39503;DHT22;26970;49.900;10.774;2023-05-10T15:47:57;15.30;99.90
39503;DHT22;26970;49.900;10.774;2023-05-10T15:50:23;15.30;99.90
39503;DHT22;26970;49.900;10.774;2023-05-10T15:52:48;15.20;99.90